createdAt,value
2022-08-12T00:02:02.966Z,96543.28
2022-08-12T00:04:52.240Z,96538.97
2022-08-12T00:07:39.403Z,96529.19
2022-08-12T00:10:25.712Z,96524.69
2022-08-12T00:13:12.580Z,96514.59
2022-08-12T00:16:01.583Z,96521.88
2022-08-12T00:18:47.624Z,96517.75
2022-08-12T00:21:34.026Z,96522.09
2022-08-12T00:24:23.945Z,96518.97
2022-08-12T00:27:10.402Z,96516.28
2022-08-12T00:29:56.225Z,96523.97
2022-08-12T00:32:54.496Z,96512.19
2022-08-12T00:35:42.424Z,96517.56
2022-08-12T00:38:30.610Z,96525.41
2022-08-12T00:41:19.266Z,96515.91
2022-08-12T00:43:49.472Z,96518.81
2022-08-12T00:46:33.008Z,96502.53
2022-08-12T00:49:02.691Z,96509.28
2022-08-12T00:51:52.893Z,96508.47
2022-08-12T00:54:21.283Z,96507.88
2022-08-12T00:56:52.186Z,96509.31
2022-08-12T00:59:20.789Z,96502.13
2022-08-12T01:02:01.129Z,96504.59
2022-08-12T01:04:56.313Z,96506.47
2022-08-12T01:07:43.189Z,96503.81
2022-08-12T01:10:32.638Z,96500.53
2022-08-12T01:13:07.322Z,96504.22
2022-08-12T01:15:49.453Z,96502.38
2022-08-12T01:18:18.341Z,96504.03
2022-08-12T01:20:57.485Z,96502.81
2022-08-12T01:23:53.153Z,96500.94
2022-08-12T01:26:25.428Z,96505.06
2022-08-12T01:28:58.443Z,96504.66
2022-08-12T01:31:29.232Z,96504.41
2022-08-12T01:34:01.710Z,96500.31
2022-08-12T01:36:32.191Z,96496.38
2022-08-12T01:39:00.375Z,96508.16
2022-08-12T01:41:31.991Z,96496.38
2022-08-12T01:44:02.435Z,96499.03
2022-08-12T01:46:40.755Z,96489.97
2022-08-12T01:49:23.533Z,96483.97
2022-08-12T01:52:21.871Z,96491.19
2022-08-12T01:54:47.031Z,96495.91
2022-08-12T01:57:58.138Z,96488.03
2022-08-12T02:00:12.226Z,96486.25
2022-08-12T02:02:42.140Z,96493.25
2022-08-12T02:05:36.290Z,96485.84
2022-08-12T02:08:36.774Z,96490.00
2022-08-12T02:11:18.876Z,96493.88
2022-08-12T02:14:13.966Z,96481.72
2022-08-12T02:17:09.572Z,96479.47
2022-08-12T02:19:49.549Z,96480.69
2022-08-12T02:22:29.252Z,96479.72
2022-08-12T02:25:03.386Z,96473.50
2022-08-12T02:27:36.138Z,96475.34
2022-08-12T02:30:08.831Z,96471.66
2022-08-12T02:32:40.318Z,96466.06
2022-08-12T02:35:11.332Z,96461.97
2022-08-12T02:37:41.302Z,96472.69
2022-08-12T02:40:12.943Z,96466.50
2022-08-12T02:42:50.012Z,96470.56
2022-08-12T02:45:26.497Z,96468.75
2022-08-12T02:48:00.706Z,96465.22
2022-08-12T02:50:30.314Z,96457.81
2022-08-12T02:52:59.512Z,96473.25
2022-08-12T02:55:34.878Z,96468.31
2022-08-12T02:58:11.937Z,96462.44
2022-08-12T03:00:43.441Z,96466.81
2022-08-12T03:03:13.670Z,96462.94
2022-08-12T03:05:46.608Z,96458.22
2022-08-12T03:08:31.585Z,96460.50
2022-08-12T03:11:06.169Z,96462.13
2022-08-12T03:13:43.063Z,96464.22
2022-08-12T03:16:13.939Z,96461.31
2022-08-12T03:18:45.746Z,96465.00
2022-08-12T03:21:17.241Z,96462.72
2022-08-12T03:24:07.053Z,96460.69
2022-08-12T03:26:36.647Z,96465.84
2022-08-12T03:29:06.926Z,96462.13
2022-08-12T03:31:36.983Z,96463.59
2022-08-12T03:34:08.182Z,96469.16
2022-08-12T03:36:38.403Z,96462.94
2022-08-12T03:39:35.810Z,96461.53
2022-08-12T03:42:23.170Z,96463.59
2022-08-12T03:45:16.436Z,96455.94
2022-08-12T03:48:08.522Z,96454.91
2022-08-12T03:50:56.102Z,96452.00
2022-08-12T03:53:45.501Z,96458.00
2022-08-12T03:56:32.043Z,96458.19
2022-08-12T03:59:18.824Z,96455.31
2022-08-12T04:01:52.594Z,96452.25
2022-08-12T04:04:23.461Z,96445.63
2022-08-12T04:06:52.166Z,96450.13
2022-08-12T04:09:22.321Z,96451.41
2022-08-12T04:12:08.773Z,96453.66
2022-08-12T04:14:37.710Z,96457.31
2022-08-12T04:17:06.149Z,96458.28
2022-08-12T04:19:35.858Z,96463.59
2022-08-12T04:22:04.299Z,96464.06
2022-08-12T04:24:34.941Z,96458.19
2022-08-12T04:27:06.169Z,96458.13
2022-08-12T04:30:31.590Z,96461.69
2022-08-12T04:32:23.309Z,96462.34
2022-08-12T04:34:53.505Z,96460.66
2022-08-12T04:37:21.955Z,96469.75
2022-08-12T04:39:51.223Z,96462.81
2022-08-12T04:42:20.152Z,96460.59
2022-08-12T04:44:48.822Z,96458.00
2022-08-12T04:47:18.087Z,96451.78
2022-08-12T04:49:48.092Z,96452.16
2022-08-12T04:52:18.173Z,96451.13
2022-08-12T04:54:46.555Z,96442.28
2022-08-12T04:57:16.004Z,96449.50
2022-08-12T04:59:48.300Z,96449.50
2022-08-12T05:02:21.102Z,96458.19
2022-08-12T05:04:52.802Z,96461.69
2022-08-12T05:07:24.293Z,96454.84
2022-08-12T05:09:59.191Z,96467.03
2022-08-12T05:12:37.846Z,96463.19
2022-08-12T05:15:19.020Z,96470.06
2022-08-12T05:17:59.797Z,96464.03
2022-08-12T05:20:30.825Z,96466.50
2022-08-12T05:23:13.393Z,96469.22
2022-08-12T05:25:43.179Z,96479.69
2022-08-12T05:28:12.914Z,96474.38
2022-08-12T05:30:43.421Z,96475.19
2022-08-12T05:33:12.768Z,96482.69
2022-08-12T05:35:43.183Z,96478.94
2022-08-12T05:38:34.477Z,96482.16
2022-08-12T05:41:04.670Z,96482.44
2022-08-12T05:43:34.583Z,96479.28
2022-08-12T05:46:02.916Z,96484.91
2022-08-12T05:48:32.530Z,96486.38
2022-08-12T05:51:00.875Z,96495.22
2022-08-12T05:53:30.589Z,96491.72
2022-08-12T05:55:58.901Z,96490.53
2022-08-12T05:58:28.010Z,96495.97
2022-08-12T06:00:57.042Z,96492.78
2022-08-12T06:03:25.591Z,96487.78
2022-08-12T06:05:57.127Z,96489.03
2022-08-12T06:08:26.477Z,96490.56
2022-08-12T06:10:57.199Z,96498.66
2022-08-12T06:13:52.647Z,96499.00
2022-08-12T06:16:15.608Z,96491.91
2022-08-12T06:18:44.207Z,96495.56
2022-08-12T06:21:16.023Z,96489.81
2022-08-12T06:23:45.831Z,96485.06
2022-08-12T06:26:16.718Z,96484.16
2022-08-12T06:28:46.087Z,96486.84
2022-08-12T06:31:32.137Z,96488.31
2022-08-12T06:35:27.016Z,96484.31
2022-08-12T06:36:49.460Z,96500.16
2022-08-12T06:39:17.876Z,96496.59
2022-08-12T06:42:31.684Z,96502.69
2022-08-12T06:44:58.820Z,96500.72
2022-08-12T06:47:27.266Z,96500.72
2022-08-12T06:49:55.579Z,96507.78
2022-08-12T06:52:24.902Z,96496.97
2022-08-12T06:54:55.378Z,96499.34
2022-08-12T06:57:57.865Z,96497.59
2022-08-12T07:00:17.067Z,96503.56
2022-08-12T07:02:46.716Z,96499.22
2022-08-12T07:05:15.126Z,96500.75
2022-08-12T07:07:46.428Z,96489.28
2022-08-12T07:10:14.757Z,96489.09
2022-08-12T07:12:45.313Z,96493.72
2022-08-12T07:15:13.687Z,96489.00
2022-08-12T07:17:42.056Z,96492.72
2022-08-12T07:20:29.630Z,96500.66
2022-08-12T07:23:01.739Z,96500.88
2022-08-12T07:25:41.116Z,96497.69
2022-08-12T07:28:16.073Z,96508.72
2022-08-12T07:30:46.803Z,96497.13
2022-08-12T07:33:16.809Z,96497.09
2022-08-12T07:35:47.880Z,96494.41
2022-08-12T07:38:29.684Z,96496.25
2022-08-12T07:41:03.195Z,96492.81
2022-08-12T07:43:35.556Z,96490.28
2022-08-12T07:46:05.748Z,96502.03
2022-08-12T07:48:38.258Z,96498.72
2022-08-12T07:51:07.147Z,96495.00
2022-08-12T07:53:47.728Z,96495.06
2022-08-12T07:56:24.857Z,96491.06
2022-08-12T07:58:55.348Z,96491.88
2022-08-12T08:01:23.720Z,96493.94
2022-08-12T08:04:15.130Z,96487.44
2022-08-12T08:06:46.834Z,96494.97
2022-08-12T08:09:18.260Z,96492.69
2022-08-12T08:12:04.135Z,96496.66
2022-08-12T08:14:33.837Z,96497.38
2022-08-12T08:17:06.617Z,96506.84
2022-08-12T08:20:02.781Z,96502.94
2022-08-12T08:22:25.742Z,96494.94
2022-08-12T08:25:34.241Z,96497.50
2022-08-12T08:28:00.335Z,96494.63
2022-08-12T08:30:30.904Z,96491.19
2022-08-12T08:32:59.421Z,96497.31
2022-08-12T08:35:32.844Z,96493.31
2022-08-12T08:38:18.585Z,96488.81
2022-08-12T08:42:19.188Z,96496.03
2022-08-12T08:44:08.001Z,96485.13
2022-08-12T08:46:38.182Z,96492.13
2022-08-12T08:49:07.167Z,96483.16
2022-08-12T08:51:35.621Z,96485.50
2022-08-12T08:54:04.152Z,96493.09
2022-08-12T08:56:32.544Z,96490.03
2022-08-12T08:59:01.132Z,96500.00
2022-08-12T09:01:37.991Z,96501.97
2022-08-12T09:05:13.646Z,96496.06
2022-08-12T09:07:16.894Z,96498.97
2022-08-12T09:10:03.527Z,96492.41
2022-08-12T09:12:56.368Z,96498.41
2022-08-12T09:15:35.778Z,96491.53
2022-08-12T09:18:08.934Z,96497.66
2022-08-12T09:20:55.498Z,96489.88
2022-08-12T09:23:57.124Z,96484.84
2022-08-12T09:26:12.256Z,96493.28
2022-08-12T09:28:41.111Z,96496.94
2022-08-12T09:32:02.955Z,96485.69
2022-08-12T09:34:29.259Z,96496.22
2022-08-12T09:37:01.101Z,96489.13
2022-08-12T09:40:05.758Z,96489.09
2022-08-12T09:42:54.108Z,96498.56
2022-08-12T09:46:11.358Z,96498.97
2022-08-12T09:48:19.743Z,96494.22
2022-08-12T09:50:51.922Z,96493.66
2022-08-12T09:53:29.220Z,96487.69
2022-08-12T09:56:59.580Z,96492.41
2022-08-12T09:58:59.721Z,96494.13
2022-08-12T10:01:35.546Z,96484.81
2022-08-12T10:04:19.711Z,96481.22
2022-08-12T10:06:55.246Z,96467.97
2022-08-12T10:09:28.542Z,96469.63
2022-08-12T10:13:12.256Z,96497.22
2022-08-12T10:16:01.743Z,96490.28
2022-08-12T10:18:10.616Z,96482.28
2022-08-12T10:20:39.601Z,96479.81
2022-08-12T10:23:08.243Z,96493.59
2022-08-12T10:26:33.943Z,96473.44
2022-08-12T10:30:03.331Z,96475.13
2022-08-12T10:32:20.829Z,96479.78
2022-08-12T10:34:53.188Z,96481.16
2022-08-12T10:38:34.304Z,96465.50
2022-08-12T10:40:20.046Z,96470.91
2022-08-12T10:43:09.089Z,96462.25
2022-08-12T10:45:38.450Z,96454.03
2022-08-12T10:48:26.441Z,96471.06
2022-08-12T10:51:01.539Z,96458.66
2022-08-12T10:53:44.007Z,96451.38
2022-08-12T10:56:16.066Z,96457.91
2022-08-12T10:58:47.844Z,96445.66
2022-08-12T11:01:26.041Z,96455.41
2022-08-12T11:04:26.473Z,96448.09
2022-08-12T11:07:06.014Z,96441.22
2022-08-12T11:09:59.789Z,96438.88
2022-08-12T11:12:56.222Z,96445.81
2022-08-12T11:15:24.169Z,96436.34
2022-08-12T11:17:55.609Z,96426.88
2022-08-12T11:20:30.993Z,96440.13
2022-08-12T11:23:04.316Z,96422.00
2022-08-12T11:25:57.381Z,96415.91
2022-08-12T11:28:33.837Z,96413.56
2022-08-12T11:31:05.413Z,96423.28
2022-08-12T11:34:04.320Z,96412.19
2022-08-12T11:36:22.443Z,96403.50
2022-08-12T11:38:51.433Z,96412.44
2022-08-12T11:41:31.092Z,96406.66
2022-08-12T11:44:29.131Z,96403.22
2022-08-12T11:46:53.265Z,96414.94
2022-08-12T11:49:31.199Z,96412.22
2022-08-12T11:52:02.791Z,96407.03
2022-08-12T11:54:31.178Z,96404.88
2022-08-12T11:57:02.332Z,96400.50
2022-08-12T12:02:21.742Z,96398.00
2022-08-12T12:04:52.740Z,96399.19
2022-08-12T12:08:36.620Z,96400.75
2022-08-12T12:10:13.001Z,96397.97
2022-08-12T12:12:50.122Z,96386.09
2022-08-12T12:15:24.647Z,96389.66
2022-08-12T12:17:55.987Z,96395.84
2022-08-12T12:20:25.996Z,96394.16
2022-08-12T12:22:56.215Z,96386.63
2022-08-12T12:26:07.602Z,96385.81
2022-08-12T12:28:37.173Z,96382.91
2022-08-12T12:31:04.252Z,96375.38
2022-08-12T12:33:57.427Z,96373.72
2022-08-12T12:36:29.244Z,96376.44
2022-08-12T12:39:00.281Z,96357.72
2022-08-12T12:42:45.097Z,96369.22
2022-08-12T12:44:27.529Z,96363.19
2022-08-12T12:47:28.757Z,96363.47
2022-08-12T12:49:56.263Z,96350.94
2022-08-12T12:52:26.784Z,96353.31
2022-08-12T12:54:57.521Z,96348.03
2022-08-12T12:57:36.412Z,96344.94
2022-08-12T13:00:15.872Z,96354.81
2022-08-12T13:02:53.607Z,96344.72
2022-08-12T13:05:27.813Z,96351.72
2022-08-12T13:08:01.141Z,96342.78
2022-08-12T13:10:37.003Z,96335.75
2022-08-12T13:14:07.579Z,96344.69
2022-08-12T13:15:58.995Z,96333.84
2022-08-12T13:18:28.831Z,96336.88
2022-08-12T13:20:59.862Z,96345.19
2022-08-12T13:23:36.226Z,96345.03
2022-08-12T13:26:14.318Z,96333.34
2022-08-12T13:28:45.711Z,96325.97
2022-08-12T13:31:24.950Z,96327.91
2022-08-12T13:34:31.922Z,96329.41
2022-08-12T13:36:47.394Z,96323.41
2022-08-12T13:39:16.397Z,96325.63
2022-08-12T13:41:44.916Z,96330.81
2022-08-12T13:44:13.429Z,96321.22
2022-08-12T13:46:42.475Z,96314.13
2022-08-12T13:49:20.465Z,96319.09
2022-08-12T13:52:03.544Z,96311.91
2022-08-12T13:54:32.833Z,96310.47
2022-08-12T13:57:01.698Z,96312.53
2022-08-12T13:59:31.014Z,96319.72
2022-08-12T14:02:18.324Z,96316.91
2022-08-12T14:04:56.520Z,96320.41
2022-08-12T14:07:27.496Z,96316.63
2022-08-12T14:10:16.253Z,96320.09
2022-08-12T14:12:54.740Z,96311.34
2022-08-12T14:15:36.996Z,96309.41
2022-08-12T14:18:13.665Z,96315.31
2022-08-12T14:20:47.678Z,96312.25
2022-08-12T14:24:08.045Z,96316.53
2022-08-12T14:26:12.020Z,96313.00
2022-08-12T14:28:45.472Z,96302.84
2022-08-12T14:31:31.366Z,96313.41
2022-08-12T14:34:04.799Z,96305.13
2022-08-12T14:36:33.298Z,96300.63
2022-08-12T14:39:06.023Z,96295.84
2022-08-12T14:41:37.002Z,96296.47
2022-08-12T14:44:59.859Z,96298.72
2022-08-12T14:47:08.076Z,96298.91
2022-08-12T14:50:33.461Z,96306.50
2022-08-12T14:53:04.495Z,96306.47
2022-08-12T14:58:04.334Z,96311.00
2022-08-12T15:00:53.529Z,96308.81
2022-08-12T15:03:46.672Z,96305.75
2022-08-12T15:06:43.509Z,96307.28
2022-08-12T15:09:12.098Z,96322.81
2022-08-12T15:11:54.758Z,96314.47
2022-08-12T15:14:25.668Z,96317.81
2022-08-12T15:16:54.727Z,96313.88
2022-08-12T15:20:11.986Z,96319.38
2022-08-12T15:22:37.299Z,96323.41
2022-08-12T15:24:59.703Z,96325.66
2022-08-12T15:28:03.247Z,96329.47
2022-08-12T15:30:22.626Z,96329.22
2022-08-12T15:32:53.513Z,96334.38
2022-08-12T15:35:22.006Z,96336.84
2022-08-12T15:38:10.095Z,96342.25
2022-08-12T15:40:48.481Z,96356.06
2022-08-12T15:43:51.083Z,96347.53
2022-08-12T15:46:15.383Z,96346.69
2022-08-12T15:48:47.087Z,96354.13
2022-08-12T15:51:59.324Z,96350.38
2022-08-12T15:54:34.114Z,96355.28
2022-08-12T15:57:07.612Z,96350.34
2022-08-12T16:00:00.197Z,96354.94
2022-08-12T16:02:29.623Z,96358.94
2022-08-12T16:04:58.754Z,96363.69
2022-08-12T16:07:31.066Z,96361.03
2022-08-12T16:10:10.517Z,96368.31
2022-08-12T16:12:41.942Z,96368.41
2022-08-12T16:15:15.938Z,96375.31
2022-08-12T16:18:18.730Z,96371.69
2022-08-12T16:20:39.612Z,96371.41
2022-08-12T16:23:26.401Z,96372.34
2022-08-12T16:26:05.202Z,96359.84
2022-08-12T16:28:42.627Z,96357.66
2022-08-12T16:31:18.698Z,96355.75
2022-08-12T16:33:56.392Z,96346.41
2022-08-12T16:36:28.369Z,96351.47
2022-08-12T16:38:56.720Z,96354.44
2022-08-12T16:41:25.648Z,96344.28
2022-08-12T16:43:56.683Z,96342.03
2022-08-12T16:46:32.436Z,96344.81
2022-08-12T16:49:08.548Z,96335.00
2022-08-12T16:51:46.118Z,96337.41
2022-08-12T16:54:17.075Z,96343.75
2022-08-12T16:56:55.457Z,96345.19
2022-08-12T16:59:31.006Z,96340.38
2022-08-12T17:02:34.121Z,96343.03
2022-08-12T17:05:04.229Z,96342.41
2022-08-12T17:07:36.864Z,96334.47
2022-08-12T17:10:06.718Z,96335.81
2022-08-12T17:12:37.601Z,96332.28
2022-08-12T17:15:50.141Z,96341.78
2022-08-12T17:18:38.818Z,96344.00
2022-08-12T17:20:48.535Z,96338.50
2022-08-12T17:23:19.465Z,96332.97
2022-08-12T17:25:50.246Z,96338.84
2022-08-12T17:28:20.177Z,96336.25
2022-08-12T17:30:57.472Z,96332.50
2022-08-12T17:33:33.537Z,96329.75
2022-08-12T17:36:05.688Z,96340.81
2022-08-12T17:38:35.681Z,96341.69
2022-08-12T17:41:22.774Z,96340.28
2022-08-12T17:43:58.729Z,96343.88
2022-08-12T17:46:33.610Z,96342.00
2022-08-12T17:49:06.603Z,96342.78
2022-08-12T17:52:02.082Z,96341.47
2022-08-12T17:54:31.752Z,96337.94
2022-08-12T17:57:02.557Z,96336.28
2022-08-12T17:59:47.711Z,96330.88
2022-08-12T18:02:19.409Z,96336.28
2022-08-12T18:05:05.417Z,96342.03
2022-08-12T18:07:39.236Z,96346.31
2022-08-12T18:10:08.720Z,96346.06
2022-08-12T18:12:42.787Z,96350.63
2022-08-12T18:15:26.241Z,96348.25
2022-08-12T18:18:16.524Z,96355.56
2022-08-12T18:20:46.663Z,96358.25
2022-08-12T18:23:15.034Z,96361.78
2022-08-12T18:26:15.274Z,96366.03
2022-08-12T18:28:48.161Z,96367.47
2022-08-12T18:31:18.509Z,96369.06
2022-08-12T18:33:47.992Z,96367.06
2022-08-12T18:36:22.040Z,96370.63
2022-08-12T18:38:53.082Z,96368.31
2022-08-12T18:41:34.238Z,96371.03
2022-08-12T18:44:08.149Z,96369.41
2022-08-12T18:46:53.770Z,96366.22
2022-08-12T18:49:30.720Z,96364.50
2022-08-12T18:52:05.249Z,96366.63
2022-08-12T18:54:36.041Z,96367.47
2022-08-12T18:57:19.269Z,96370.50
2022-08-12T19:00:00.709Z,96364.91
2022-08-12T19:02:36.178Z,96362.25
2022-08-12T19:05:09.854Z,96367.59
2022-08-12T19:07:49.337Z,96372.84
2022-08-12T19:10:23.097Z,96375.97
2022-08-12T19:13:10.582Z,96373.34
2022-08-12T19:15:42.359Z,96373.63
2022-08-12T19:18:12.454Z,96374.06
2022-08-12T19:20:42.050Z,96372.06
2022-08-12T19:23:21.114Z,96378.28
2022-08-12T19:26:00.373Z,96380.72
2022-08-12T19:28:35.714Z,96367.16
2022-08-12T19:31:55.733Z,96377.28
2022-08-12T19:34:56.378Z,96376.59
2022-08-12T19:37:20.136Z,96370.31
2022-08-12T19:40:09.317Z,96382.38
2022-08-12T19:42:44.491Z,96387.66
2022-08-12T19:45:14.013Z,96379.19
2022-08-12T19:47:46.695Z,96384.28
2022-08-12T19:50:19.621Z,96383.00
2022-08-12T19:52:51.019Z,96381.22
2022-08-12T19:55:21.837Z,96383.00
2022-08-12T19:58:02.455Z,96384.53
2022-08-12T20:00:34.572Z,96385.69
2022-08-12T20:03:06.166Z,96389.47
2022-08-12T20:06:05.766Z,96386.53
2022-08-12T20:08:33.993Z,96381.69
2022-08-12T20:12:14.050Z,96388.66
2022-08-12T20:14:00.202Z,96393.16
2022-08-12T20:17:01.695Z,96389.66
2022-08-12T20:19:28.480Z,96388.69
2022-08-12T20:22:24.478Z,96388.28
2022-08-12T20:25:01.348Z,96396.72
2022-08-12T20:28:02.427Z,96390.41
2022-08-12T20:30:37.895Z,96392.41
2022-08-12T20:33:18.585Z,96388.94
2022-08-12T20:36:13.446Z,96383.41
2022-08-12T20:38:46.067Z,96387.06
2022-08-12T20:41:17.532Z,96383.53
2022-08-12T20:43:50.749Z,96394.09
2022-08-12T20:46:21.151Z,96390.41
2022-08-12T20:48:54.535Z,96399.59
2022-08-12T20:51:23.836Z,96394.47
2022-08-12T20:53:58.737Z,96395.56
2022-08-12T20:56:34.833Z,96390.41
2022-08-12T20:59:06.711Z,96390.56
2022-08-12T21:01:47.105Z,96392.78
2022-08-12T21:04:35.134Z,96386.34
2022-08-12T21:07:09.157Z,96390.09
2022-08-12T21:09:41.950Z,96388.13
2022-08-12T21:12:28.437Z,96390.03
2022-08-12T21:15:24.127Z,96389.16
2022-08-12T21:18:15.500Z,96381.81
2022-08-12T21:20:52.704Z,96378.47
2022-08-12T21:23:22.608Z,96380.16
2022-08-12T21:25:52.566Z,96376.59
2022-08-12T21:28:31.257Z,96369.22
2022-08-12T21:32:35.510Z,96375.19
2022-08-12T21:34:08.002Z,96372.44
2022-08-12T21:36:39.739Z,96367.69
2022-08-12T21:39:20.710Z,96379.81
2022-08-12T21:41:52.275Z,96372.00
2022-08-12T21:45:43.459Z,96374.66
2022-08-12T21:47:21.384Z,96377.50
2022-08-12T21:50:03.236Z,96380.00
2022-08-12T21:52:37.058Z,96387.00
2022-08-12T21:55:08.043Z,96382.31
2022-08-12T21:57:50.672Z,96381.88
2022-08-12T22:00:23.899Z,96383.72
2022-08-12T22:04:04.305Z,96382.38
2022-08-12T22:06:30.893Z,96375.47
2022-08-12T22:09:15.357Z,96385.28
2022-08-12T22:11:49.342Z,96381.81
2022-08-12T22:14:28.599Z,96381.72
2022-08-12T22:16:58.194Z,96385.28
2022-08-12T22:19:27.883Z,96377.72
2022-08-12T22:21:58.402Z,96374.91
2022-08-12T22:24:30.024Z,96376.38
2022-08-12T22:27:17.947Z,96371.94
2022-08-12T22:30:06.163Z,96370.91
2022-08-12T22:32:38.673Z,96359.25
2022-08-12T22:35:29.132Z,96358.19
2022-08-12T22:37:58.895Z,96356.28
2022-08-12T22:40:27.152Z,96360.59
2022-08-12T22:43:15.280Z,96359.63
2022-08-12T22:46:01.498Z,96354.09
2022-08-12T22:48:30.636Z,96354.53
2022-08-12T22:51:00.525Z,96354.53
2022-08-12T22:53:35.884Z,96358.94
2022-08-12T22:56:08.083Z,96361.13
2022-08-12T22:58:40.423Z,96349.44
2022-08-12T23:01:10.813Z,96352.91
2022-08-12T23:03:47.050Z,96342.81
2022-08-12T23:06:23.162Z,96353.56
2022-08-12T23:08:52.031Z,96351.94
2022-08-12T23:11:23.963Z,96350.84
2022-08-12T23:13:56.939Z,96344.09
2022-08-12T23:16:31.816Z,96342.66
2022-08-12T23:19:10.638Z,96342.84
2022-08-12T23:22:05.471Z,96342.34
2022-08-12T23:24:56.281Z,96342.66
2022-08-12T23:27:52.316Z,96345.59
2022-08-12T23:30:31.676Z,96337.06
2022-08-12T23:33:01.586Z,96342.16
2022-08-12T23:35:45.540Z,96331.66
2022-08-12T23:38:31.638Z,96327.41
2022-08-12T23:41:01.895Z,96331.13
2022-08-12T23:43:38.861Z,96326.97
2022-08-12T23:46:10.559Z,96329.38
2022-08-12T23:48:40.088Z,96322.63
2022-08-12T23:51:21.518Z,96322.34
2022-08-12T23:53:55.190Z,96320.22
2022-08-12T23:56:24.726Z,96319.56
2022-08-12T23:58:55.084Z,96324.00
